sensor_id;sensor_type;location;lat;lon;timestamp;temperature;humidity
12622;DHT22;6376;48.182;-1.644;2023-12-14T00:01:52;12.50;92.70
12622;DHT22;6376;48.182;-1.644;2023-12-14T00:04:18;12.50;92.70
12622;DHT22;6376;48.182;-1.644;2023-12-14T00:06:43;12.60;92.70
12622;DHT22;6376;48.182;-1.644;2023-12-14T00:09:09;12.50;92.70
12622;DHT22;6376;48.182;-1.644;2023-12-14T00:11:41;12.50;92.70
12622;DHT22;6376;48.182;-1.644;2023-12-14T00:14:06;12.50;92.70
12622;DHT22;6376;48.182;-1.644;2023-12-14T00:16:32;12.50;92.70
12622;DHT22;6376;48.182;-1.644;2023-12-14T00:18:58;12.50;92.70
12622;DHT22;6376;48.182;-1.644;2023-12-14T00:21:23;12.50;92.70
12622;DHT22;6376;48.182;-1.644;2023-12-14T00:23:49;12.50;92.60
12622;DHT22;6376;48.182;-1.644;2023-12-14T00:26:15;12.50;92.60
12622;DHT22;6376;48.182;-1.644;2023-12-14T00:28:40;12.50;92.60
12622;DHT22;6376;48.182;-1.644;2023-12-14T00:31:06;12.50;92.60
12622;DHT22;6376;48.182;-1.644;2023-12-14T00:33:32;12.50;92.50
12622;DHT22;6376;48.182;-1.644;2023-12-14T00:35:57;12.50;92.60
12622;DHT22;6376;48.182;-1.644;2023-12-14T00:38:23;12.50;92.60
12622;DHT22;6376;48.182;-1.644;2023-12-14T00:40:49;12.50;92.60
12622;DHT22;6376;48.182;-1.644;2023-12-14T00:43:14;12.50;92.50
12622;DHT22;6376;48.182;-1.644;2023-12-14T00:45:40;12.50;92.50
12622;DHT22;6376;48.182;-1.644;2023-12-14T00:48:06;12.50;92.60
12622;DHT22;6376;48.182;-1.644;2023-12-14T00:50:32;12.50;92.50
12622;DHT22;6376;48.182;-1.644;2023-12-14T00:52:58;12.50;92.50
12622;DHT22;6376;48.182;-1.644;2023-12-14T00:55:23;12.50;92.50
12622;DHT22;6376;48.182;-1.644;2023-12-14T00:57:49;12.50;92.50
12622;DHT22;6376;48.182;-1.644;2023-12-14T01:00:15;12.50;92.50
12622;DHT22;6376;48.182;-1.644;2023-12-14T01:02:41;12.50;92.50
12622;DHT22;6376;48.182;-1.644;2023-12-14T01:05:07;12.50;92.50
12622;DHT22;6376;48.182;-1.644;2023-12-14T01:07:32;12.50;92.40
12622;DHT22;6376;48.182;-1.644;2023-12-14T01:09:58;12.50;92.40
12622;DHT22;6376;48.182;-1.644;2023-12-14T01:12:23;12.50;92.80
12622;DHT22;6376;48.182;-1.644;2023-12-14T01:14:49;12.50;92.40
12622;DHT22;6376;48.182;-1.644;2023-12-14T01:17:15;12.50;92.50
12622;DHT22;6376;48.182;-1.644;2023-12-14T01:19:40;12.50;92.40
12622;DHT22;6376;48.182;-1.644;2023-12-14T01:22:06;12.50;92.40
12622;DHT22;6376;48.182;-1.644;2023-12-14T01:24:32;12.50;92.40
12622;DHT22;6376;48.182;-1.644;2023-12-14T01:26:58;12.50;92.40
12622;DHT22;6376;48.182;-1.644;2023-12-14T01:29:23;12.50;92.40
12622;DHT22;6376;48.182;-1.644;2023-12-14T01:31:49;12.40;92.40
12622;DHT22;6376;48.182;-1.644;2023-12-14T01:34:15;12.40;92.40
12622;DHT22;6376;48.182;-1.644;2023-12-14T01:36:41;12.40;92.40
12622;DHT22;6376;48.182;-1.644;2023-12-14T01:39:07;12.40;92.40
12622;DHT22;6376;48.182;-1.644;2023-12-14T01:41:32;12.40;92.40
12622;DHT22;6376;48.182;-1.644;2023-12-14T01:43:58;12.40;92.40
12622;DHT22;6376;48.182;-1.644;2023-12-14T01:46:24;12.40;92.40
12622;DHT22;6376;48.182;-1.644;2023-12-14T01:48:50;12.40;92.30
12622;DHT22;6376;48.182;-1.644;2023-12-14T01:51:17;12.50;92.40
12622;DHT22;6376;48.182;-1.644;2023-12-14T01:53:43;12.40;92.40
12622;DHT22;6376;48.182;-1.644;2023-12-14T01:56:08;12.40;92.30
12622;DHT22;6376;48.182;-1.644;2023-12-14T01:58:34;12.40;92.30
12622;DHT22;6376;48.182;-1.644;2023-12-14T02:03:46;12.40;92.30
12622;DHT22;6376;48.182;-1.644;2023-12-14T02:06:11;12.40;92.30
12622;DHT22;6376;48.182;-1.644;2023-12-14T02:08:37;12.40;92.20
12622;DHT22;6376;48.182;-1.644;2023-12-14T02:11:03;12.40;92.20
12622;DHT22;6376;48.182;-1.644;2023-12-14T02:13:28;12.40;92.30
12622;DHT22;6376;48.182;-1.644;2023-12-14T02:15:54;12.40;92.30
12622;DHT22;6376;48.182;-1.644;2023-12-14T02:18:20;12.40;92.30
12622;DHT22;6376;48.182;-1.644;2023-12-14T02:20:45;12.40;92.30
12622;DHT22;6376;48.182;-1.644;2023-12-14T02:23:11;12.30;92.30
12622;DHT22;6376;48.182;-1.644;2023-12-14T02:25:36;12.30;92.30
12622;DHT22;6376;48.182;-1.644;2023-12-14T02:28:02;12.30;92.20
12622;DHT22;6376;48.182;-1.644;2023-12-14T02:30:28;12.30;92.20
12622;DHT22;6376;48.182;-1.644;2023-12-14T02:32:53;12.30;92.20
12622;DHT22;6376;48.182;-1.644;2023-12-14T02:35:19;12.30;92.20
12622;DHT22;6376;48.182;-1.644;2023-12-14T02:37:45;12.30;92.20
12622;DHT22;6376;48.182;-1.644;2023-12-14T02:40:11;12.30;92.20
12622;DHT22;6376;48.182;-1.644;2023-12-14T02:42:37;12.30;92.20
12622;DHT22;6376;48.182;-1.644;2023-12-14T02:45:03;12.30;92.20
12622;DHT22;6376;48.182;-1.644;2023-12-14T02:47:29;12.30;92.20
12622;DHT22;6376;48.182;-1.644;2023-12-14T02:49:55;12.30;92.20
12622;DHT22;6376;48.182;-1.644;2023-12-14T02:52:21;12.30;92.10
12622;DHT22;6376;48.182;-1.644;2023-12-14T02:54:47;12.30;92.10
12622;DHT22;6376;48.182;-1.644;2023-12-14T02:57:13;12.30;92.20
12622;DHT22;6376;48.182;-1.644;2023-12-14T02:59:39;12.30;92.10
12622;DHT22;6376;48.182;-1.644;2023-12-14T03:02:05;12.30;92.10
12622;DHT22;6376;48.182;-1.644;2023-12-14T03:04:30;12.30;92.10
12622;DHT22;6376;48.182;-1.644;2023-12-14T03:06:56;12.30;92.10
12622;DHT22;6376;48.182;-1.644;2023-12-14T03:09:22;12.30;92.20
12622;DHT22;6376;48.182;-1.644;2023-12-14T03:11:48;12.30;92.20
12622;DHT22;6376;48.182;-1.644;2023-12-14T03:14:14;12.30;92.20
12622;DHT22;6376;48.182;-1.644;2023-12-14T03:16:40;12.20;92.10
12622;DHT22;6376;48.182;-1.644;2023-12-14T03:19:05;12.20;92.10
12622;DHT22;6376;48.182;-1.644;2023-12-14T03:21:31;12.20;92.10
12622;DHT22;6376;48.182;-1.644;2023-12-14T03:23:57;12.20;92.10
12622;DHT22;6376;48.182;-1.644;2023-12-14T03:26:22;12.20;92.20
12622;DHT22;6376;48.182;-1.644;2023-12-14T03:28:48;12.20;92.10
12622;DHT22;6376;48.182;-1.644;2023-12-14T03:31:14;12.20;92.20
12622;DHT22;6376;48.182;-1.644;2023-12-14T03:33:40;12.20;92.20
12622;DHT22;6376;48.182;-1.644;2023-12-14T03:36:06;12.20;92.20
12622;DHT22;6376;48.182;-1.644;2023-12-14T03:38:32;12.20;92.20
12622;DHT22;6376;48.182;-1.644;2023-12-14T03:40:58;12.20;92.20
12622;DHT22;6376;48.182;-1.644;2023-12-14T03:43:24;12.20;92.20
12622;DHT22;6376;48.182;-1.644;2023-12-14T03:45:49;12.20;92.20
12622;DHT22;6376;48.182;-1.644;2023-12-14T03:48:15;12.20;92.20
12622;DHT22;6376;48.182;-1.644;2023-12-14T03:50:40;12.20;92.50
12622;DHT22;6376;48.182;-1.644;2023-12-14T03:53:06;12.20;92.20
12622;DHT22;6376;48.182;-1.644;2023-12-14T03:55:32;12.20;92.10
12622;DHT22;6376;48.182;-1.644;2023-12-14T03:57:58;12.20;92.10
12622;DHT22;6376;48.182;-1.644;2023-12-14T04:00:24;12.20;92.10
12622;DHT22;6376;48.182;-1.644;2023-12-14T04:02:49;12.20;92.10
12622;DHT22;6376;48.182;-1.644;2023-12-14T04:05:15;12.20;92.20
12622;DHT22;6376;48.182;-1.644;2023-12-14T04:07:41;12.20;92.10
12622;DHT22;6376;48.182;-1.644;2023-12-14T04:10:10;12.20;92.10
12622;DHT22;6376;48.182;-1.644;2023-12-14T04:12:37;12.20;92.00
12622;DHT22;6376;48.182;-1.644;2023-12-14T04:15:06;12.20;92.00
12622;DHT22;6376;48.182;-1.644;2023-12-14T04:17:33;12.20;92.00
12622;DHT22;6376;48.182;-1.644;2023-12-14T04:19:59;12.20;92.00
12622;DHT22;6376;48.182;-1.644;2023-12-14T04:22:25;12.20;92.00
12622;DHT22;6376;48.182;-1.644;2023-12-14T04:24:51;12.10;91.90
12622;DHT22;6376;48.182;-1.644;2023-12-14T04:27:16;12.20;92.00
12622;DHT22;6376;48.182;-1.644;2023-12-14T04:29:42;12.20;92.00
12622;DHT22;6376;48.182;-1.644;2023-12-14T04:32:08;12.10;92.00
12622;DHT22;6376;48.182;-1.644;2023-12-14T04:34:33;12.10;91.90
12622;DHT22;6376;48.182;-1.644;2023-12-14T04:36:59;12.10;91.90
12622;DHT22;6376;48.182;-1.644;2023-12-14T04:39:25;12.10;92.00
12622;DHT22;6376;48.182;-1.644;2023-12-14T04:41:52;12.10;92.00
12622;DHT22;6376;48.182;-1.644;2023-12-14T04:44:18;12.10;92.00
12622;DHT22;6376;48.182;-1.644;2023-12-14T04:46:44;12.10;92.00
12622;DHT22;6376;48.182;-1.644;2023-12-14T04:49:10;12.10;92.00
12622;DHT22;6376;48.182;-1.644;2023-12-14T04:51:36;12.10;92.20
12622;DHT22;6376;48.182;-1.644;2023-12-14T04:54:02;12.10;92.10
12622;DHT22;6376;48.182;-1.644;2023-12-14T04:56:28;12.10;92.20
12622;DHT22;6376;48.182;-1.644;2023-12-14T04:58:53;12.10;92.20
12622;DHT22;6376;48.182;-1.644;2023-12-14T05:01:19;12.10;92.20
12622;DHT22;6376;48.182;-1.644;2023-12-14T05:03:44;12.10;92.20
12622;DHT22;6376;48.182;-1.644;2023-12-14T05:06:10;12.10;92.20
12622;DHT22;6376;48.182;-1.644;2023-12-14T05:08:36;12.10;92.30
12622;DHT22;6376;48.182;-1.644;2023-12-14T05:11:01;12.10;92.30
12622;DHT22;6376;48.182;-1.644;2023-12-14T05:13:28;12.10;92.30
12622;DHT22;6376;48.182;-1.644;2023-12-14T05:15:53;12.00;92.30
12622;DHT22;6376;48.182;-1.644;2023-12-14T05:18:19;12.00;92.30
12622;DHT22;6376;48.182;-1.644;2023-12-14T05:20:45;12.00;92.30
12622;DHT22;6376;48.182;-1.644;2023-12-14T05:23:11;12.10;92.30
12622;DHT22;6376;48.182;-1.644;2023-12-14T05:25:37;12.00;92.30
12622;DHT22;6376;48.182;-1.644;2023-12-14T05:28:03;12.00;92.30
12622;DHT22;6376;48.182;-1.644;2023-12-14T05:30:29;12.00;92.30
12622;DHT22;6376;48.182;-1.644;2023-12-14T05:32:55;12.00;92.30
12622;DHT22;6376;48.182;-1.644;2023-12-14T05:35:21;12.00;92.30
12622;DHT22;6376;48.182;-1.644;2023-12-14T05:37:47;12.00;92.30
12622;DHT22;6376;48.182;-1.644;2023-12-14T05:40:13;12.00;92.30
12622;DHT22;6376;48.182;-1.644;2023-12-14T05:42:39;12.00;92.30
12622;DHT22;6376;48.182;-1.644;2023-12-14T05:45:06;12.00;92.30
12622;DHT22;6376;48.182;-1.644;2023-12-14T05:47:32;12.00;92.30
12622;DHT22;6376;48.182;-1.644;2023-12-14T05:49:59;12.00;92.30
12622;DHT22;6376;48.182;-1.644;2023-12-14T05:52:25;12.00;92.30
12622;DHT22;6376;48.182;-1.644;2023-12-14T05:54:50;12.00;92.30
12622;DHT22;6376;48.182;-1.644;2023-12-14T05:57:16;12.00;92.30
12622;DHT22;6376;48.182;-1.644;2023-12-14T05:59:42;12.00;92.30
12622;DHT22;6376;48.182;-1.644;2023-12-14T06:02:07;12.00;92.30
12622;DHT22;6376;48.182;-1.644;2023-12-14T06:04:33;12.00;92.30
12622;DHT22;6376;48.182;-1.644;2023-12-14T06:06:59;12.00;92.30
12622;DHT22;6376;48.182;-1.644;2023-12-14T06:09:25;12.00;92.30
12622;DHT22;6376;48.182;-1.644;2023-12-14T06:12:02;12.00;92.30
12622;DHT22;6376;48.182;-1.644;2023-12-14T06:14:28;12.00;92.20
12622;DHT22;6376;48.182;-1.644;2023-12-14T06:16:54;12.00;92.20
12622;DHT22;6376;48.182;-1.644;2023-12-14T06:19:20;12.00;92.20
12622;DHT22;6376;48.182;-1.644;2023-12-14T06:21:46;12.00;92.20
12622;DHT22;6376;48.182;-1.644;2023-12-14T06:24:12;12.00;92.20
12622;DHT22;6376;48.182;-1.644;2023-12-14T06:26:44;12.00;92.20
12622;DHT22;6376;48.182;-1.644;2023-12-14T06:29:11;12.00;92.10
12622;DHT22;6376;48.182;-1.644;2023-12-14T06:31:38;12.00;92.20
12622;DHT22;6376;48.182;-1.644;2023-12-14T06:34:04;12.00;92.10
12622;DHT22;6376;48.182;-1.644;2023-12-14T06:36:30;12.00;92.10
12622;DHT22;6376;48.182;-1.644;2023-12-14T06:39:00;12.00;92.00
12622;DHT22;6376;48.182;-1.644;2023-12-14T06:41:27;12.00;92.00
12622;DHT22;6376;48.182;-1.644;2023-12-14T06:43:53;12.00;92.00
12622;DHT22;6376;48.182;-1.644;2023-12-14T06:46:19;12.00;92.00
12622;DHT22;6376;48.182;-1.644;2023-12-14T06:48:45;12.00;92.10
12622;DHT22;6376;48.182;-1.644;2023-12-14T06:51:11;12.00;92.00
12622;DHT22;6376;48.182;-1.644;2023-12-14T06:53:40;12.00;92.00
12622;DHT22;6376;48.182;-1.644;2023-12-14T06:56:07;12.00;92.20
12622;DHT22;6376;48.182;-1.644;2023-12-14T06:58:39;12.00;92.10
12622;DHT22;6376;48.182;-1.644;2023-12-14T07:01:05;12.00;92.00
12622;DHT22;6376;48.182;-1.644;2023-12-14T07:03:31;12.00;92.00
12622;DHT22;6376;48.182;-1.644;2023-12-14T07:05:57;12.00;92.10
12622;DHT22;6376;48.182;-1.644;2023-12-14T07:08:23;12.00;92.20
12622;DHT22;6376;48.182;-1.644;2023-12-14T07:10:48;12.00;92.20
12622;DHT22;6376;48.182;-1.644;2023-12-14T07:13:14;12.00;92.20
12622;DHT22;6376;48.182;-1.644;2023-12-14T07:15:40;12.00;92.30
12622;DHT22;6376;48.182;-1.644;2023-12-14T07:18:05;12.00;92.30
12622;DHT22;6376;48.182;-1.644;2023-12-14T07:20:31;12.00;92.30
12622;DHT22;6376;48.182;-1.644;2023-12-14T07:22:56;12.00;92.60
12622;DHT22;6376;48.182;-1.644;2023-12-14T07:25:22;11.90;92.30
12622;DHT22;6376;48.182;-1.644;2023-12-14T07:27:48;12.00;92.30
12622;DHT22;6376;48.182;-1.644;2023-12-14T07:30:14;12.00;92.30
12622;DHT22;6376;48.182;-1.644;2023-12-14T07:32:39;11.90;92.30
12622;DHT22;6376;48.182;-1.644;2023-12-14T07:35:05;11.90;92.30
12622;DHT22;6376;48.182;-1.644;2023-12-14T07:37:31;12.00;92.30
12622;DHT22;6376;48.182;-1.644;2023-12-14T07:39:57;12.00;92.30
12622;DHT22;6376;48.182;-1.644;2023-12-14T07:42:23;11.90;92.30
12622;DHT22;6376;48.182;-1.644;2023-12-14T07:44:49;11.90;92.30
12622;DHT22;6376;48.182;-1.644;2023-12-14T07:47:15;11.90;92.30
12622;DHT22;6376;48.182;-1.644;2023-12-14T07:49:41;11.90;92.20
12622;DHT22;6376;48.182;-1.644;2023-12-14T07:52:06;12.00;92.20
12622;DHT22;6376;48.182;-1.644;2023-12-14T07:54:32;11.90;92.20
12622;DHT22;6376;48.182;-1.644;2023-12-14T07:56:58;11.90;92.10
12622;DHT22;6376;48.182;-1.644;2023-12-14T07:59:23;11.90;92.20
12622;DHT22;6376;48.182;-1.644;2023-12-14T08:01:49;11.90;92.20
12622;DHT22;6376;48.182;-1.644;2023-12-14T08:04:15;12.00;92.30
12622;DHT22;6376;48.182;-1.644;2023-12-14T08:06:40;12.00;92.20
12622;DHT22;6376;48.182;-1.644;2023-12-14T08:09:06;11.90;92.30
12622;DHT22;6376;48.182;-1.644;2023-12-14T08:11:33;11.90;92.20
12622;DHT22;6376;48.182;-1.644;2023-12-14T08:13:58;11.90;92.20
12622;DHT22;6376;48.182;-1.644;2023-12-14T08:16:24;11.90;92.20
12622;DHT22;6376;48.182;-1.644;2023-12-14T08:18:50;11.90;92.20
12622;DHT22;6376;48.182;-1.644;2023-12-14T08:21:16;12.00;92.20
12622;DHT22;6376;48.182;-1.644;2023-12-14T08:23:42;11.90;92.20
12622;DHT22;6376;48.182;-1.644;2023-12-14T08:26:07;11.90;92.20
12622;DHT22;6376;48.182;-1.644;2023-12-14T08:28:35;11.90;92.10
12622;DHT22;6376;48.182;-1.644;2023-12-14T08:31:01;11.90;92.20
12622;DHT22;6376;48.182;-1.644;2023-12-14T08:33:28;12.00;92.20
12622;DHT22;6376;48.182;-1.644;2023-12-14T08:35:55;11.90;92.20
12622;DHT22;6376;48.182;-1.644;2023-12-14T08:38:21;11.90;92.00
12622;DHT22;6376;48.182;-1.644;2023-12-14T08:40:46;12.00;92.10
12622;DHT22;6376;48.182;-1.644;2023-12-14T08:43:12;11.90;92.10
12622;DHT22;6376;48.182;-1.644;2023-12-14T08:45:38;11.90;92.10
12622;DHT22;6376;48.182;-1.644;2023-12-14T08:48:04;11.90;92.10
12622;DHT22;6376;48.182;-1.644;2023-12-14T08:50:29;11.90;92.10
12622;DHT22;6376;48.182;-1.644;2023-12-14T08:52:55;11.90;92.10
12622;DHT22;6376;48.182;-1.644;2023-12-14T08:55:21;11.90;92.10
12622;DHT22;6376;48.182;-1.644;2023-12-14T08:57:47;11.90;92.10
12622;DHT22;6376;48.182;-1.644;2023-12-14T09:00:13;11.90;92.10
12622;DHT22;6376;48.182;-1.644;2023-12-14T09:02:39;11.90;92.10
12622;DHT22;6376;48.182;-1.644;2023-12-14T09:05:04;11.90;92.00
12622;DHT22;6376;48.182;-1.644;2023-12-14T09:07:31;11.90;92.00
12622;DHT22;6376;48.182;-1.644;2023-12-14T09:09:57;11.90;92.10
12622;DHT22;6376;48.182;-1.644;2023-12-14T09:12:23;12.00;92.10
12622;DHT22;6376;48.182;-1.644;2023-12-14T09:14:49;11.90;92.10
12622;DHT22;6376;48.182;-1.644;2023-12-14T09:17:14;12.00;92.10
12622;DHT22;6376;48.182;-1.644;2023-12-14T09:19:40;11.90;92.10
12622;DHT22;6376;48.182;-1.644;2023-12-14T09:22:06;11.90;92.10
12622;DHT22;6376;48.182;-1.644;2023-12-14T09:24:31;11.90;92.10
12622;DHT22;6376;48.182;-1.644;2023-12-14T09:26:57;11.90;92.10
12622;DHT22;6376;48.182;-1.644;2023-12-14T09:29:22;11.90;92.00
12622;DHT22;6376;48.182;-1.644;2023-12-14T09:31:48;12.00;92.00
12622;DHT22;6376;48.182;-1.644;2023-12-14T09:34:14;11.90;92.00
12622;DHT22;6376;48.182;-1.644;2023-12-14T09:36:40;11.90;92.10
12622;DHT22;6376;48.182;-1.644;2023-12-14T09:39:06;11.90;92.10
12622;DHT22;6376;48.182;-1.644;2023-12-14T09:41:36;11.90;92.10
12622;DHT22;6376;48.182;-1.644;2023-12-14T09:44:04;12.00;92.10
12622;DHT22;6376;48.182;-1.644;2023-12-14T09:46:30;12.00;92.10
12622;DHT22;6376;48.182;-1.644;2023-12-14T09:48:57;11.90;92.10
12622;DHT22;6376;48.182;-1.644;2023-12-14T09:51:25;11.90;92.10
12622;DHT22;6376;48.182;-1.644;2023-12-14T09:53:52;12.00;92.20
12622;DHT22;6376;48.182;-1.644;2023-12-14T09:56:26;11.90;92.20
12622;DHT22;6376;48.182;-1.644;2023-12-14T09:58:53;12.00;92.20
12622;DHT22;6376;48.182;-1.644;2023-12-14T10:01:23;12.00;92.20
12622;DHT22;6376;48.182;-1.644;2023-12-14T10:03:49;11.90;92.20
12622;DHT22;6376;48.182;-1.644;2023-12-14T10:06:15;11.90;92.20
12622;DHT22;6376;48.182;-1.644;2023-12-14T10:08:53;11.90;92.20
12622;DHT22;6376;48.182;-1.644;2023-12-14T10:11:19;12.00;92.20
12622;DHT22;6376;48.182;-1.644;2023-12-14T10:13:45;12.00;92.20
12622;DHT22;6376;48.182;-1.644;2023-12-14T10:16:10;12.00;92.20
12622;DHT22;6376;48.182;-1.644;2023-12-14T10:18:36;12.00;92.20
12622;DHT22;6376;48.182;-1.644;2023-12-14T10:21:02;12.00;92.10
12622;DHT22;6376;48.182;-1.644;2023-12-14T10:23:28;12.00;92.00
12622;DHT22;6376;48.182;-1.644;2023-12-14T10:25:54;12.00;92.00
12622;DHT22;6376;48.182;-1.644;2023-12-14T10:28:20;12.00;92.00
12622;DHT22;6376;48.182;-1.644;2023-12-14T10:30:47;12.00;92.00
12622;DHT22;6376;48.182;-1.644;2023-12-14T10:33:13;12.00;92.00
12622;DHT22;6376;48.182;-1.644;2023-12-14T10:35:41;12.00;92.00
12622;DHT22;6376;48.182;-1.644;2023-12-14T10:38:09;12.00;92.00
12622;DHT22;6376;48.182;-1.644;2023-12-14T10:40:36;12.00;92.10
12622;DHT22;6376;48.182;-1.644;2023-12-14T10:43:06;12.00;92.10
12622;DHT22;6376;48.182;-1.644;2023-12-14T10:45:32;12.00;92.10
12622;DHT22;6376;48.182;-1.644;2023-12-14T10:47:59;12.00;92.10
12622;DHT22;6376;48.182;-1.644;2023-12-14T10:50:30;12.00;92.20
12622;DHT22;6376;48.182;-1.644;2023-12-14T10:52:59;12.00;92.20
12622;DHT22;6376;48.182;-1.644;2023-12-14T10:57:57;12.00;92.10
12622;DHT22;6376;48.182;-1.644;2023-12-14T11:00:23;12.00;92.10
12622;DHT22;6376;48.182;-1.644;2023-12-14T11:02:49;12.00;92.10
12622;DHT22;6376;48.182;-1.644;2023-12-14T11:05:16;12.00;92.10
12622;DHT22;6376;48.182;-1.644;2023-12-14T11:07:46;12.00;92.10
12622;DHT22;6376;48.182;-1.644;2023-12-14T11:10:13;12.00;92.10
12622;DHT22;6376;48.182;-1.644;2023-12-14T11:12:57;12.00;92.10
12622;DHT22;6376;48.182;-1.644;2023-12-14T11:15:25;12.00;92.10
12622;DHT22;6376;48.182;-1.644;2023-12-14T11:20:53;12.00;92.00
12622;DHT22;6376;48.182;-1.644;2023-12-14T11:25:59;12.00;92.10
12622;DHT22;6376;48.182;-1.644;2023-12-14T11:28:26;12.00;92.10
12622;DHT22;6376;48.182;-1.644;2023-12-14T11:30:52;12.00;92.10
12622;DHT22;6376;48.182;-1.644;2023-12-14T11:33:18;12.00;92.10
12622;DHT22;6376;48.182;-1.644;2023-12-14T11:35:43;12.00;92.10
12622;DHT22;6376;48.182;-1.644;2023-12-14T11:38:09;12.00;92.10
12622;DHT22;6376;48.182;-1.644;2023-12-14T11:40:42;12.00;92.10
12622;DHT22;6376;48.182;-1.644;2023-12-14T11:43:08;12.00;92.00
12622;DHT22;6376;48.182;-1.644;2023-12-14T11:45:35;12.00;92.10
12622;DHT22;6376;48.182;-1.644;2023-12-14T11:48:02;12.00;92.10
12622;DHT22;6376;48.182;-1.644;2023-12-14T11:50:31;12.00;92.10
12622;DHT22;6376;48.182;-1.644;2023-12-14T11:52:57;12.00;92.10
12622;DHT22;6376;48.182;-1.644;2023-12-14T11:55:23;12.00;92.10
12622;DHT22;6376;48.182;-1.644;2023-12-14T11:57:49;12.00;92.00
12622;DHT22;6376;48.182;-1.644;2023-12-14T12:00:15;12.00;92.20
12622;DHT22;6376;48.182;-1.644;2023-12-14T12:02:42;12.10;92.20
12622;DHT22;6376;48.182;-1.644;2023-12-14T12:05:08;12.00;92.10
12622;DHT22;6376;48.182;-1.644;2023-12-14T12:07:33;12.00;92.20
12622;DHT22;6376;48.182;-1.644;2023-12-14T12:09:59;12.00;92.20
12622;DHT22;6376;48.182;-1.644;2023-12-14T12:12:25;12.00;92.10
12622;DHT22;6376;48.182;-1.644;2023-12-14T12:14:50;12.10;92.20
12622;DHT22;6376;48.182;-1.644;2023-12-14T12:17:18;12.10;92.20
12622;DHT22;6376;48.182;-1.644;2023-12-14T12:19:47;12.00;92.20
12622;DHT22;6376;48.182;-1.644;2023-12-14T12:22:12;12.10;92.20
12622;DHT22;6376;48.182;-1.644;2023-12-14T12:24:38;12.10;92.20
12622;DHT22;6376;48.182;-1.644;2023-12-14T12:27:04;12.00;92.10
12622;DHT22;6376;48.182;-1.644;2023-12-14T12:29:30;12.10;92.20
12622;DHT22;6376;48.182;-1.644;2023-12-14T12:31:56;12.10;92.20
12622;DHT22;6376;48.182;-1.644;2023-12-14T12:34:21;12.10;92.20
12622;DHT22;6376;48.182;-1.644;2023-12-14T12:36:47;12.10;92.20
12622;DHT22;6376;48.182;-1.644;2023-12-14T12:39:13;12.10;92.20
12622;DHT22;6376;48.182;-1.644;2023-12-14T12:41:39;12.10;92.20
12622;DHT22;6376;48.182;-1.644;2023-12-14T12:44:05;12.10;92.20
12622;DHT22;6376;48.182;-1.644;2023-12-14T12:46:34;12.10;92.20
12622;DHT22;6376;48.182;-1.644;2023-12-14T12:49:01;12.10;92.20
12622;DHT22;6376;48.182;-1.644;2023-12-14T12:51:28;12.10;92.20
12622;DHT22;6376;48.182;-1.644;2023-12-14T12:53:55;12.10;92.20
12622;DHT22;6376;48.182;-1.644;2023-12-14T12:56:21;12.10;92.20
12622;DHT22;6376;48.182;-1.644;2023-12-14T12:58:47;12.10;92.20
12622;DHT22;6376;48.182;-1.644;2023-12-14T13:01:15;12.10;92.20
12622;DHT22;6376;48.182;-1.644;2023-12-14T13:03:41;12.10;92.20
12622;DHT22;6376;48.182;-1.644;2023-12-14T13:06:06;12.10;92.20
12622;DHT22;6376;48.182;-1.644;2023-12-14T13:08:33;12.10;92.30
12622;DHT22;6376;48.182;-1.644;2023-12-14T13:10:58;12.10;92.30
12622;DHT22;6376;48.182;-1.644;2023-12-14T13:13:25;12.10;92.30
12622;DHT22;6376;48.182;-1.644;2023-12-14T13:15:50;12.10;92.30
12622;DHT22;6376;48.182;-1.644;2023-12-14T13:18:16;12.10;92.30
12622;DHT22;6376;48.182;-1.644;2023-12-14T13:20:42;12.10;92.30
12622;DHT22;6376;48.182;-1.644;2023-12-14T13:23:08;12.10;92.30
12622;DHT22;6376;48.182;-1.644;2023-12-14T13:25:34;12.10;92.30
12622;DHT22;6376;48.182;-1.644;2023-12-14T13:28:00;12.10;92.30
12622;DHT22;6376;48.182;-1.644;2023-12-14T13:30:26;12.10;92.30
12622;DHT22;6376;48.182;-1.644;2023-12-14T13:32:52;12.10;92.30
12622;DHT22;6376;48.182;-1.644;2023-12-14T13:35:19;12.10;92.30
12622;DHT22;6376;48.182;-1.644;2023-12-14T13:37:45;12.10;92.30
12622;DHT22;6376;48.182;-1.644;2023-12-14T13:40:11;12.10;92.30
12622;DHT22;6376;48.182;-1.644;2023-12-14T13:42:38;12.10;92.30
12622;DHT22;6376;48.182;-1.644;2023-12-14T13:45:04;12.10;92.70
12622;DHT22;6376;48.182;-1.644;2023-12-14T13:47:30;12.10;92.30
12622;DHT22;6376;48.182;-1.644;2023-12-14T13:49:55;12.10;92.30
12622;DHT22;6376;48.182;-1.644;2023-12-14T13:52:21;12.10;92.30
12622;DHT22;6376;48.182;-1.644;2023-12-14T13:54:46;12.10;92.30
12622;DHT22;6376;48.182;-1.644;2023-12-14T13:57:12;12.10;92.30
12622;DHT22;6376;48.182;-1.644;2023-12-14T13:59:38;12.10;92.30
12622;DHT22;6376;48.182;-1.644;2023-12-14T14:02:03;12.10;92.30
12622;DHT22;6376;48.182;-1.644;2023-12-14T14:04:29;12.10;92.30
12622;DHT22;6376;48.182;-1.644;2023-12-14T14:06:55;12.10;92.30
12622;DHT22;6376;48.182;-1.644;2023-12-14T14:09:22;12.10;92.30
12622;DHT22;6376;48.182;-1.644;2023-12-14T14:11:47;12.10;92.30
12622;DHT22;6376;48.182;-1.644;2023-12-14T14:14:16;12.10;92.30
12622;DHT22;6376;48.182;-1.644;2023-12-14T14:16:41;12.10;92.30
12622;DHT22;6376;48.182;-1.644;2023-12-14T14:19:07;12.10;92.30
12622;DHT22;6376;48.182;-1.644;2023-12-14T14:21:32;12.10;92.30
12622;DHT22;6376;48.182;-1.644;2023-12-14T14:23:58;12.20;92.30
12622;DHT22;6376;48.182;-1.644;2023-12-14T14:26:24;12.10;92.30
12622;DHT22;6376;48.182;-1.644;2023-12-14T14:28:49;12.10;92.30
12622;DHT22;6376;48.182;-1.644;2023-12-14T14:31:15;12.10;92.30
12622;DHT22;6376;48.182;-1.644;2023-12-14T14:33:40;12.10;92.30
12622;DHT22;6376;48.182;-1.644;2023-12-14T14:36:06;12.20;92.30
12622;DHT22;6376;48.182;-1.644;2023-12-14T14:38:34;12.20;92.30
12622;DHT22;6376;48.182;-1.644;2023-12-14T14:40:59;12.20;92.30
12622;DHT22;6376;48.182;-1.644;2023-12-14T14:43:25;12.10;92.30
12622;DHT22;6376;48.182;-1.644;2023-12-14T14:45:50;12.10;92.30
12622;DHT22;6376;48.182;-1.644;2023-12-14T14:48:16;12.10;92.30
12622;DHT22;6376;48.182;-1.644;2023-12-14T14:50:43;12.20;92.40
12622;DHT22;6376;48.182;-1.644;2023-12-14T14:53:10;12.20;92.40
12622;DHT22;6376;48.182;-1.644;2023-12-14T14:55:38;12.20;92.40
12622;DHT22;6376;48.182;-1.644;2023-12-14T14:58:03;12.20;92.40
12622;DHT22;6376;48.182;-1.644;2023-12-14T15:00:29;12.20;92.40
12622;DHT22;6376;48.182;-1.644;2023-12-14T15:02:55;12.20;92.40
12622;DHT22;6376;48.182;-1.644;2023-12-14T15:05:21;12.20;92.40
12622;DHT22;6376;48.182;-1.644;2023-12-14T15:07:47;12.20;92.50
12622;DHT22;6376;48.182;-1.644;2023-12-14T15:10:12;12.20;92.50
12622;DHT22;6376;48.182;-1.644;2023-12-14T15:12:38;12.20;92.50
12622;DHT22;6376;48.182;-1.644;2023-12-14T15:15:04;12.20;92.40
12622;DHT22;6376;48.182;-1.644;2023-12-14T15:17:30;12.20;92.50
12622;DHT22;6376;48.182;-1.644;2023-12-14T15:19:55;12.20;92.50
12622;DHT22;6376;48.182;-1.644;2023-12-14T15:22:21;12.20;92.50
12622;DHT22;6376;48.182;-1.644;2023-12-14T15:24:46;12.20;92.50
12622;DHT22;6376;48.182;-1.644;2023-12-14T15:27:14;12.20;92.50
12622;DHT22;6376;48.182;-1.644;2023-12-14T15:29:40;12.20;92.50
12622;DHT22;6376;48.182;-1.644;2023-12-14T15:32:06;12.20;92.50
12622;DHT22;6376;48.182;-1.644;2023-12-14T15:34:33;12.20;92.50